This is the latest recevied weather packets stored in our database for station/object KB1JDX. If no packets are shown the sender has not sent any weather packets the latest 10 day(s).
| Time | Temp. | Humidity | Pressure | Rain* | Wind** | Luminosity | Snow |
|---|---|---|---|---|---|---|---|
| 1788064273 | 13.89° C | 100% | 1021.7 hPa | 0 mm | 0 m/s | - | - |
| 1788063138 | 13.89° C | 100% | 1021.6 hPa | 0 mm | 0 m/s | - | - |
| 1788061938 | 14.44° C | 100% | 1021.7 hPa | 0 mm | 0 m/s | - | - |
| 1788060738 | 14.44° C | 100% | 1021.7 hPa | 0 mm | 0 m/s | - | - |
| 1788060673 | 14.44° C | 100% | 1021.7 hPa | 0 mm | 0 m/s | - | - |
| 1788057139 | 15° C | 100% | 1021.8 hPa | 0 mm | 0 m/s | - | - |
| 1788057073 | 15° C | 100% | 1021.7 hPa | 0 mm | 0 m/s | - | - |
| 1788054738 | 15.56° C | 100% | 1021.8 hPa | 0 mm | 0 m/s | - | - |
| 1788053538 | 15.56° C | 100% | 1021.7 hPa | 0 mm | 0 m/s | - | - |
| 1788053473 | 15.56° C | 100% | 1021.7 hPa | 0 mm | 0 m/s | - | - |
| 1788052338 | 16.11° C | 100% | 1021.5 hPa | 0 mm | 0 m/s | - | - |
| 1788051138 | 16.67° C | 100% | 1021.4 hPa | 0 mm | 0 m/s | - | - |
| 1788049938 | 17.22° C | 100% | 1021.3 hPa | 0 mm | 0 m/s | - | - |
| 1788049873 | 17.22° C | 100% | 1021.3 hPa | 0 mm | 0 m/s | - | - |
| 1788048738 | 18.33° C | 100% | 1021.1 hPa | 0 mm | 0 m/s | - | - |
| 1788047538 | 18.89° C | 22% | 1020.7 hPa | 0 mm | 0 m/s | - | - |
| 1788046338 | 20° C | 39% | 1020.6 hPa | 0 mm | 0 m/s | - | - |
| 1788046273 | 20° C | 40% | 1020.7 hPa | 0 mm | 0 m/s | - | - |
| 1788045138 | 21.11° C | 53% | 1020.6 hPa | 0 mm | 0 m/s | - | - |
| 1788043938 | 22.22° C | 58% | 1020.6 hPa | 0 mm | 0 m/s | - | - |
| 1788042738 | 23.33° C | 53% | 1020.6 hPa | 0 mm | 0 m/s | - | - |
| 1788042673 | 23.33° C | 52% | 1020.6 hPa | 0 mm | 0 m/s | - | - |
| 1788040338 | 24.44° C | 47% | 1020.7 hPa | 0 mm | 0 m/s | - | - |
| 1788039138 | 25.56° C | 46% | 1020.9 hPa | 0 mm | 0 m/s | - | - |
| 1788039073 | 25.56° C | 46% | 1020.8 hPa | 0 mm | 0 m/s | - | - |
* Rain latest hour (hover to see other rain measurements)
** Current wind speed in m/s (hover to see current wind gust speed)